sensor_id;sensor_type;location;lat;lon;timestamp;temperature;humidity
39951;DHT22;25629;51.444;-2.606;2022-09-16T00:00:16;13.50;99.90
39951;DHT22;25629;51.444;-2.606;2022-09-16T00:02:42;13.40;99.90
39951;DHT22;25629;51.444;-2.606;2022-09-16T00:05:08;13.40;99.90
39951;DHT22;25629;51.444;-2.606;2022-09-16T00:07:34;13.30;99.90
39951;DHT22;25629;51.444;-2.606;2022-09-16T00:10:00;13.30;99.90
39951;DHT22;25629;51.444;-2.606;2022-09-16T00:12:26;13.20;99.90
39951;DHT22;25629;51.444;-2.606;2022-09-16T00:14:53;13.20;99.90
39951;DHT22;25629;51.444;-2.606;2022-09-16T00:17:19;13.20;99.90
39951;DHT22;25629;51.444;-2.606;2022-09-16T00:19:45;13.10;99.90
39951;DHT22;25629;51.444;-2.606;2022-09-16T00:22:11;13.10;99.90
39951;DHT22;25629;51.444;-2.606;2022-09-16T00:24:37;13.10;99.90
39951;DHT22;25629;51.444;-2.606;2022-09-16T00:27:03;13.10;99.90
39951;DHT22;25629;51.444;-2.606;2022-09-16T00:29:28;13.10;99.90
39951;DHT22;25629;51.444;-2.606;2022-09-16T00:31:54;13.00;99.90
39951;DHT22;25629;51.444;-2.606;2022-09-16T00:34:20;13.00;99.90
39951;DHT22;25629;51.444;-2.606;2022-09-16T00:36:46;12.90;99.90
39951;DHT22;25629;51.444;-2.606;2022-09-16T00:39:11;12.90;99.90
39951;DHT22;25629;51.444;-2.606;2022-09-16T00:41:37;12.90;99.90
39951;DHT22;25629;51.444;-2.606;2022-09-16T00:44:05;12.90;99.90
39951;DHT22;25629;51.444;-2.606;2022-09-16T00:46:37;12.90;99.90
39951;DHT22;25629;51.444;-2.606;2022-09-16T00:49:16;12.80;99.90
39951;DHT22;25629;51.444;-2.606;2022-09-16T00:51:44;12.80;99.90
39951;DHT22;25629;51.444;-2.606;2022-09-16T00:54:12;12.80;99.90
39951;DHT22;25629;51.444;-2.606;2022-09-16T00:56:40;12.90;99.90
39951;DHT22;25629;51.444;-2.606;2022-09-16T00:59:13;12.80;99.90
39951;DHT22;25629;51.444;-2.606;2022-09-16T01:01:39;12.80;99.90
39951;DHT22;25629;51.444;-2.606;2022-09-16T01:04:13;12.80;99.90
39951;DHT22;25629;51.444;-2.606;2022-09-16T01:06:42;12.80;99.90
39951;DHT22;25629;51.444;-2.606;2022-09-16T01:09:07;12.80;99.90
39951;DHT22;25629;51.444;-2.606;2022-09-16T01:11:33;12.80;99.90
39951;DHT22;25629;51.444;-2.606;2022-09-16T01:13:59;12.70;99.90
39951;DHT22;25629;51.444;-2.606;2022-09-16T01:22:26;12.70;99.90
39951;DHT22;25629;51.444;-2.606;2022-09-16T01:33:11;12.70;99.90
39951;DHT22;25629;51.444;-2.606;2022-09-16T01:35:48;12.60;99.90
39951;DHT22;25629;51.444;-2.606;2022-09-16T01:38:36;12.60;99.90
39951;DHT22;25629;51.444;-2.606;2022-09-16T01:44:09;12.50;99.90
39951;DHT22;25629;51.444;-2.606;2022-09-16T01:49:20;12.50;99.90
39951;DHT22;25629;51.444;-2.606;2022-09-16T01:54:43;12.40;99.90
39951;DHT22;25629;51.444;-2.606;2022-09-16T01:57:16;12.40;99.90
39951;DHT22;25629;51.444;-2.606;2022-09-16T01:59:48;12.30;99.90
39951;DHT22;25629;51.444;-2.606;2022-09-16T02:05:13;12.10;99.90
39951;DHT22;25629;51.444;-2.606;2022-09-16T02:07:45;12.10;99.90
39951;DHT22;25629;51.444;-2.606;2022-09-16T02:10:23;12.00;99.90
39951;DHT22;25629;51.444;-2.606;2022-09-16T02:12:52;12.00;99.90
39951;DHT22;25629;51.444;-2.606;2022-09-16T02:15:22;12.00;99.90
39951;DHT22;25629;51.444;-2.606;2022-09-16T02:17:56;12.00;99.90
39951;DHT22;25629;51.444;-2.606;2022-09-16T02:20:26;12.00;99.90
39951;DHT22;25629;51.444;-2.606;2022-09-16T02:23:00;11.90;99.90
39951;DHT22;25629;51.444;-2.606;2022-09-16T02:25:30;11.80;99.90
39951;DHT22;25629;51.444;-2.606;2022-09-16T02:28:00;11.80;99.90
39951;DHT22;25629;51.444;-2.606;2022-09-16T02:30:27;11.80;99.90
39951;DHT22;25629;51.444;-2.606;2022-09-16T02:33:01;11.90;99.90
39951;DHT22;25629;51.444;-2.606;2022-09-16T02:35:30;12.00;99.90
39951;DHT22;25629;51.444;-2.606;2022-09-16T02:38:03;12.10;99.90
39951;DHT22;25629;51.444;-2.606;2022-09-16T02:42:57;12.30;99.90
39951;DHT22;25629;51.444;-2.606;2022-09-16T02:45:28;12.40;99.90
39951;DHT22;25629;51.444;-2.606;2022-09-16T02:48:03;12.50;99.90
39951;DHT22;25629;51.444;-2.606;2022-09-16T02:50:52;12.50;99.90
39951;DHT22;25629;51.444;-2.606;2022-09-16T02:53:42;12.60;99.90
39951;DHT22;25629;51.444;-2.606;2022-09-16T02:58:51;12.80;99.90
39951;DHT22;25629;51.444;-2.606;2022-09-16T03:01:18;12.80;99.90
39951;DHT22;25629;51.444;-2.606;2022-09-16T03:03:45;12.80;99.90
39951;DHT22;25629;51.444;-2.606;2022-09-16T03:08:40;12.70;99.90
39951;DHT22;25629;51.444;-2.606;2022-09-16T03:16:44;12.70;99.90
39951;DHT22;25629;51.444;-2.606;2022-09-16T03:22:22;12.70;99.90
39951;DHT22;25629;51.444;-2.606;2022-09-16T03:28:14;12.60;99.90
39951;DHT22;25629;51.444;-2.606;2022-09-16T03:31:04;12.60;99.90
39951;DHT22;25629;51.444;-2.606;2022-09-16T03:36:39;12.60;99.90
39951;DHT22;25629;51.444;-2.606;2022-09-16T03:39:08;12.60;99.90
39951;DHT22;25629;51.444;-2.606;2022-09-16T03:41:34;12.60;99.90
39951;DHT22;25629;51.444;-2.606;2022-09-16T03:44:00;12.60;99.90
39951;DHT22;25629;51.444;-2.606;2022-09-16T03:46:26;12.60;99.90
39951;DHT22;25629;51.444;-2.606;2022-09-16T03:48:54;12.60;99.90
39951;DHT22;25629;51.444;-2.606;2022-09-16T03:51:20;12.60;99.90
39951;DHT22;25629;51.444;-2.606;2022-09-16T03:53:46;12.60;99.90
39951;DHT22;25629;51.444;-2.606;2022-09-16T03:56:11;12.60;99.90
39951;DHT22;25629;51.444;-2.606;2022-09-16T03:58:37;12.70;99.90
39951;DHT22;25629;51.444;-2.606;2022-09-16T04:01:03;12.70;99.90
39951;DHT22;25629;51.444;-2.606;2022-09-16T04:03:29;12.70;99.90
39951;DHT22;25629;51.444;-2.606;2022-09-16T04:05:56;12.70;99.90
39951;DHT22;25629;51.444;-2.606;2022-09-16T04:08:22;12.70;99.90
39951;DHT22;25629;51.444;-2.606;2022-09-16T04:10:57;12.70;99.90
39951;DHT22;25629;51.444;-2.606;2022-09-16T04:13:24;12.60;99.90
39951;DHT22;25629;51.444;-2.606;2022-09-16T04:15:50;12.60;99.90
39951;DHT22;25629;51.444;-2.606;2022-09-16T04:18:16;12.50;99.90
39951;DHT22;25629;51.444;-2.606;2022-09-16T04:20:43;12.40;99.90
39951;DHT22;25629;51.444;-2.606;2022-09-16T04:23:08;12.30;99.90
39951;DHT22;25629;51.444;-2.606;2022-09-16T04:25:34;12.20;99.90
39951;DHT22;25629;51.444;-2.606;2022-09-16T04:28:00;12.10;99.90
39951;DHT22;25629;51.444;-2.606;2022-09-16T04:30:26;12.00;99.90
39951;DHT22;25629;51.444;-2.606;2022-09-16T04:32:55;11.90;99.90
39951;DHT22;25629;51.444;-2.606;2022-09-16T04:35:22;11.90;99.90
39951;DHT22;25629;51.444;-2.606;2022-09-16T04:37:48;11.90;99.90
39951;DHT22;25629;51.444;-2.606;2022-09-16T04:40:14;11.90;99.90
39951;DHT22;25629;51.444;-2.606;2022-09-16T04:42:40;11.80;99.90
39951;DHT22;25629;51.444;-2.606;2022-09-16T04:45:06;11.80;99.90
39951;DHT22;25629;51.444;-2.606;2022-09-16T04:47:32;11.80;99.90
39951;DHT22;25629;51.444;-2.606;2022-09-16T04:49:58;11.70;99.90
39951;DHT22;25629;51.444;-2.606;2022-09-16T04:52:24;11.60;99.90
39951;DHT22;25629;51.444;-2.606;2022-09-16T04:54:49;11.60;99.90
39951;DHT22;25629;51.444;-2.606;2022-09-16T04:57:15;11.60;99.90
39951;DHT22;25629;51.444;-2.606;2022-09-16T04:59:40;11.50;99.90
39951;DHT22;25629;51.444;-2.606;2022-09-16T05:02:06;11.50;99.90
39951;DHT22;25629;51.444;-2.606;2022-09-16T05:04:32;11.40;99.90
39951;DHT22;25629;51.444;-2.606;2022-09-16T05:06:58;11.40;99.90
39951;DHT22;25629;51.444;-2.606;2022-09-16T05:09:23;11.40;99.90
39951;DHT22;25629;51.444;-2.606;2022-09-16T05:11:50;11.30;99.90
39951;DHT22;25629;51.444;-2.606;2022-09-16T05:14:16;11.40;99.90
39951;DHT22;25629;51.444;-2.606;2022-09-16T05:16:43;11.30;99.90
39951;DHT22;25629;51.444;-2.606;2022-09-16T05:19:10;11.30;99.90
39951;DHT22;25629;51.444;-2.606;2022-09-16T05:21:37;11.20;99.90
39951;DHT22;25629;51.444;-2.606;2022-09-16T05:24:08;11.30;99.90
39951;DHT22;25629;51.444;-2.606;2022-09-16T05:26:36;11.30;99.90
39951;DHT22;25629;51.444;-2.606;2022-09-16T05:29:05;11.20;99.90
39951;DHT22;25629;51.444;-2.606;2022-09-16T05:31:34;11.10;99.90
39951;DHT22;25629;51.444;-2.606;2022-09-16T05:34:11;11.10;99.90
39951;DHT22;25629;51.444;-2.606;2022-09-16T05:36:38;11.10;99.90
39951;DHT22;25629;51.444;-2.606;2022-09-16T05:39:05;11.00;99.90
39951;DHT22;25629;51.444;-2.606;2022-09-16T05:41:31;11.00;99.90
39951;DHT22;25629;51.444;-2.606;2022-09-16T05:43:58;11.00;99.90
39951;DHT22;25629;51.444;-2.606;2022-09-16T05:46:25;11.00;99.90
39951;DHT22;25629;51.444;-2.606;2022-09-16T05:48:50;10.90;99.90
39951;DHT22;25629;51.444;-2.606;2022-09-16T05:51:21;10.90;99.90
39951;DHT22;25629;51.444;-2.606;2022-09-16T05:53:48;10.70;99.90
39951;DHT22;25629;51.444;-2.606;2022-09-16T05:56:17;10.80;99.90
39951;DHT22;25629;51.444;-2.606;2022-09-16T05:58:43;10.70;99.90
39951;DHT22;25629;51.444;-2.606;2022-09-16T06:01:16;10.70;99.90
39951;DHT22;25629;51.444;-2.606;2022-09-16T06:03:44;10.70;99.90
39951;DHT22;25629;51.444;-2.606;2022-09-16T06:08:44;10.60;99.90
39951;DHT22;25629;51.444;-2.606;2022-09-16T06:11:10;10.60;99.90
39951;DHT22;25629;51.444;-2.606;2022-09-16T06:13:37;10.60;99.90
39951;DHT22;25629;51.444;-2.606;2022-09-16T06:16:04;10.70;99.90
39951;DHT22;25629;51.444;-2.606;2022-09-16T06:18:30;10.70;99.90
39951;DHT22;25629;51.444;-2.606;2022-09-16T06:20:57;10.70;99.90
39951;DHT22;25629;51.444;-2.606;2022-09-16T06:23:23;10.70;99.90
39951;DHT22;25629;51.444;-2.606;2022-09-16T06:25:59;10.80;99.90
39951;DHT22;25629;51.444;-2.606;2022-09-16T06:28:25;10.80;99.90
39951;DHT22;25629;51.444;-2.606;2022-09-16T06:31:03;10.80;99.90
39951;DHT22;25629;51.444;-2.606;2022-09-16T06:33:29;10.80;99.90
39951;DHT22;25629;51.444;-2.606;2022-09-16T06:35:55;10.80;99.90
39951;DHT22;25629;51.444;-2.606;2022-09-16T06:38:23;10.80;99.90
39951;DHT22;25629;51.444;-2.606;2022-09-16T06:40:48;10.90;99.90
39951;DHT22;25629;51.444;-2.606;2022-09-16T06:43:15;10.90;99.90
39951;DHT22;25629;51.444;-2.606;2022-09-16T06:45:40;11.00;99.90
39951;DHT22;25629;51.444;-2.606;2022-09-16T06:48:06;11.00;99.90
39951;DHT22;25629;51.444;-2.606;2022-09-16T06:50:32;11.00;99.90
39951;DHT22;25629;51.444;-2.606;2022-09-16T06:52:58;11.10;99.90
39951;DHT22;25629;51.444;-2.606;2022-09-16T06:55:24;11.10;99.90
39951;DHT22;25629;51.444;-2.606;2022-09-16T06:57:50;11.20;99.90
39951;DHT22;25629;51.444;-2.606;2022-09-16T07:00:16;11.30;99.90
39951;DHT22;25629;51.444;-2.606;2022-09-16T07:02:41;11.40;99.90
39951;DHT22;25629;51.444;-2.606;2022-09-16T07:05:07;11.50;99.90
39951;DHT22;25629;51.444;-2.606;2022-09-16T07:07:34;11.70;99.90
39951;DHT22;25629;51.444;-2.606;2022-09-16T07:10:01;11.80;99.90
39951;DHT22;25629;51.444;-2.606;2022-09-16T07:12:27;11.90;99.90
39951;DHT22;25629;51.444;-2.606;2022-09-16T07:14:53;12.10;99.90
39951;DHT22;25629;51.444;-2.606;2022-09-16T07:17:19;12.40;99.90
39951;DHT22;25629;51.444;-2.606;2022-09-16T07:19:48;12.60;99.90
39951;DHT22;25629;51.444;-2.606;2022-09-16T07:22:13;12.70;99.90
39951;DHT22;25629;51.444;-2.606;2022-09-16T07:24:39;12.80;99.90
39951;DHT22;25629;51.444;-2.606;2022-09-16T07:27:05;13.00;99.90
39951;DHT22;25629;51.444;-2.606;2022-09-16T07:29:30;13.10;99.90
39951;DHT22;25629;51.444;-2.606;2022-09-16T07:31:56;13.30;99.90
39951;DHT22;25629;51.444;-2.606;2022-09-16T07:34:22;13.50;99.90
39951;DHT22;25629;51.444;-2.606;2022-09-16T07:36:49;13.60;99.90
39951;DHT22;25629;51.444;-2.606;2022-09-16T07:39:16;13.70;99.90
39951;DHT22;25629;51.444;-2.606;2022-09-16T07:41:43;13.80;99.90
39951;DHT22;25629;51.444;-2.606;2022-09-16T07:44:16;13.90;99.90
39951;DHT22;25629;51.444;-2.606;2022-09-16T07:46:41;14.00;99.90
39951;DHT22;25629;51.444;-2.606;2022-09-16T07:49:09;14.00;99.90
39951;DHT22;25629;51.444;-2.606;2022-09-16T07:51:35;14.20;99.90
39951;DHT22;25629;51.444;-2.606;2022-09-16T07:54:13;14.30;99.90
39951;DHT22;25629;51.444;-2.606;2022-09-16T07:56:39;14.50;99.90
39951;DHT22;25629;51.444;-2.606;2022-09-16T07:59:09;14.60;99.90
39951;DHT22;25629;51.444;-2.606;2022-09-16T08:01:35;14.70;99.90
39951;DHT22;25629;51.444;-2.606;2022-09-16T08:04:01;14.80;99.90
39951;DHT22;25629;51.444;-2.606;2022-09-16T08:06:29;14.90;99.90
39951;DHT22;25629;51.444;-2.606;2022-09-16T08:08:58;15.00;99.90
39951;DHT22;25629;51.444;-2.606;2022-09-16T08:11:28;15.10;99.90
39951;DHT22;25629;51.444;-2.606;2022-09-16T08:13:54;15.10;99.90
39951;DHT22;25629;51.444;-2.606;2022-09-16T08:16:22;15.00;99.90
39951;DHT22;25629;51.444;-2.606;2022-09-16T08:18:51;15.00;99.90
39951;DHT22;25629;51.444;-2.606;2022-09-16T08:21:24;15.20;99.90
39951;DHT22;25629;51.444;-2.606;2022-09-16T08:23:50;15.40;99.90
39951;DHT22;25629;51.444;-2.606;2022-09-16T08:26:16;15.50;99.90
39951;DHT22;25629;51.444;-2.606;2022-09-16T08:28:44;15.60;99.90
39951;DHT22;25629;51.444;-2.606;2022-09-16T08:31:10;15.70;99.90
39951;DHT22;25629;51.444;-2.606;2022-09-16T08:33:38;15.90;99.90
39951;DHT22;25629;51.444;-2.606;2022-09-16T08:36:05;16.00;99.90
39951;DHT22;25629;51.444;-2.606;2022-09-16T08:38:35;16.10;99.90
39951;DHT22;25629;51.444;-2.606;2022-09-16T08:46:56;16.70;99.90
39951;DHT22;25629;51.444;-2.606;2022-09-16T08:51:59;16.90;99.90
39951;DHT22;25629;51.444;-2.606;2022-09-16T08:54:48;17.00;99.90
39951;DHT22;25629;51.444;-2.606;2022-09-16T08:57:27;17.30;99.90
39951;DHT22;25629;51.444;-2.606;2022-09-16T08:59:58;17.50;99.90
39951;DHT22;25629;51.444;-2.606;2022-09-16T09:02:49;17.70;99.90
39951;DHT22;25629;51.444;-2.606;2022-09-16T09:18:46;17.90;99.80
39951;DHT22;25629;51.444;-2.606;2022-09-16T09:21:20;17.90;99.90
39951;DHT22;25629;51.444;-2.606;2022-09-16T09:42:50;17.60;99.90
39951;DHT22;25629;51.444;-2.606;2022-09-16T09:45:28;17.50;99.90
39951;DHT22;25629;51.444;-2.606;2022-09-16T09:48:00;17.30;99.90
39951;DHT22;25629;51.444;-2.606;2022-09-16T09:50:46;17.50;99.90
39951;DHT22;25629;51.444;-2.606;2022-09-16T09:53:33;18.00;99.90
39951;DHT22;25629;51.444;-2.606;2022-09-16T09:56:11;17.90;99.10
39951;DHT22;25629;51.444;-2.606;2022-09-16T09:59:16;17.70;98.70
39951;DHT22;25629;51.444;-2.606;2022-09-16T10:01:44;17.70;98.00
39951;DHT22;25629;51.444;-2.606;2022-09-16T10:04:13;18.10;98.70
39951;DHT22;25629;51.444;-2.606;2022-09-16T10:06:40;18.60;97.80
39951;DHT22;25629;51.444;-2.606;2022-09-16T10:09:12;19.10;97.10
39951;DHT22;25629;51.444;-2.606;2022-09-16T10:11:51;19.60;96.20
39951;DHT22;25629;51.444;-2.606;2022-09-16T10:14:28;20.10;96.10
39951;DHT22;25629;51.444;-2.606;2022-09-16T10:16:54;20.50;95.30
39951;DHT22;25629;51.444;-2.606;2022-09-16T10:19:24;20.70;94.90
39951;DHT22;25629;51.444;-2.606;2022-09-16T10:22:11;20.60;94.90
39951;DHT22;25629;51.444;-2.606;2022-09-16T10:24:43;20.50;95.00
39951;DHT22;25629;51.444;-2.606;2022-09-16T10:30:01;20.10;95.20
39951;DHT22;25629;51.444;-2.606;2022-09-16T10:32:27;19.60;95.00
39951;DHT22;25629;51.444;-2.606;2022-09-16T10:34:52;18.90;95.80
39951;DHT22;25629;51.444;-2.606;2022-09-16T10:37:19;18.70;95.90
39951;DHT22;25629;51.444;-2.606;2022-09-16T10:39:51;18.90;96.10
39951;DHT22;25629;51.444;-2.606;2022-09-16T10:42:23;19.60;95.70
39951;DHT22;25629;51.444;-2.606;2022-09-16T10:44:52;20.40;94.80
39951;DHT22;25629;51.444;-2.606;2022-09-16T10:47:19;21.10;93.90
39951;DHT22;25629;51.444;-2.606;2022-09-16T10:49:51;21.70;92.90
39951;DHT22;25629;51.444;-2.606;2022-09-16T10:52:26;22.10;92.30
39951;DHT22;25629;51.444;-2.606;2022-09-16T10:54:52;22.60;92.40
39951;DHT22;25629;51.444;-2.606;2022-09-16T10:57:39;23.00;91.40
39951;DHT22;25629;51.444;-2.606;2022-09-16T11:00:18;22.50;90.90
39951;DHT22;25629;51.444;-2.606;2022-09-16T11:11:09;21.00;92.40
39951;DHT22;25629;51.444;-2.606;2022-09-16T11:14:22;20.70;92.50
39951;DHT22;25629;51.444;-2.606;2022-09-16T11:17:04;20.90;91.30
39951;DHT22;25629;51.444;-2.606;2022-09-16T11:20:04;21.10;91.90
39951;DHT22;25629;51.444;-2.606;2022-09-16T11:22:55;21.20;91.10
39951;DHT22;25629;51.444;-2.606;2022-09-16T11:28:40;20.90;91.70
39951;DHT22;25629;51.444;-2.606;2022-09-16T11:33:56;20.70;92.10
39951;DHT22;25629;51.444;-2.606;2022-09-16T11:42:01;20.40;92.00
39951;DHT22;25629;51.444;-2.606;2022-09-16T11:47:37;20.50;90.70
39951;DHT22;25629;51.444;-2.606;2022-09-16T11:53:13;20.30;91.40
39951;DHT22;25629;51.444;-2.606;2022-09-16T11:58:45;20.30;91.90
39951;DHT22;25629;51.444;-2.606;2022-09-16T12:04:06;20.40;91.90
39951;DHT22;25629;51.444;-2.606;2022-09-16T12:09:53;19.60;92.50
39951;DHT22;25629;51.444;-2.606;2022-09-16T12:12:23;19.20;93.30
39951;DHT22;25629;51.444;-2.606;2022-09-16T12:14:54;19.20;93.90
39951;DHT22;25629;51.444;-2.606;2022-09-16T12:17:25;19.20;93.60
39951;DHT22;25629;51.444;-2.606;2022-09-16T12:19:59;19.20;93.70
39951;DHT22;25629;51.444;-2.606;2022-09-16T12:22:29;19.10;93.80
39951;DHT22;25629;51.444;-2.606;2022-09-16T12:25:12;19.20;93.30
39951;DHT22;25629;51.444;-2.606;2022-09-16T12:28:01;19.30;93.30
39951;DHT22;25629;51.444;-2.606;2022-09-16T12:30:39;19.60;93.10
39951;DHT22;25629;51.444;-2.606;2022-09-16T12:33:26;19.60;93.20
39951;DHT22;25629;51.444;-2.606;2022-09-16T12:35:57;19.90;93.10
39951;DHT22;25629;51.444;-2.606;2022-09-16T12:38:24;20.50;93.00
39951;DHT22;25629;51.444;-2.606;2022-09-16T12:49:48;22.50;90.70
39951;DHT22;25629;51.444;-2.606;2022-09-16T12:52:38;21.40;92.10
39951;DHT22;25629;51.444;-2.606;2022-09-16T13:03:27;19.80;92.70
39951;DHT22;25629;51.444;-2.606;2022-09-16T13:05:56;19.20;93.10
39951;DHT22;25629;51.444;-2.606;2022-09-16T13:08:29;19.10;93.90
39951;DHT22;25629;51.444;-2.606;2022-09-16T13:11:04;20.00;93.80
39951;DHT22;25629;51.444;-2.606;2022-09-16T13:16:00;21.90;92.40
39951;DHT22;25629;51.444;-2.606;2022-09-16T13:18:48;22.40;91.60
39951;DHT22;25629;51.444;-2.606;2022-09-16T13:21:41;23.00;91.30
39951;DHT22;25629;51.444;-2.606;2022-09-16T13:24:29;23.30;89.70
39951;DHT22;25629;51.444;-2.606;2022-09-16T13:26:55;23.40;89.10
39951;DHT22;25629;51.444;-2.606;2022-09-16T13:29:42;23.80;88.10
39951;DHT22;25629;51.444;-2.606;2022-09-16T13:32:35;24.30;85.90
39951;DHT22;25629;51.444;-2.606;2022-09-16T13:35:19;23.90;85.70
39951;DHT22;25629;51.444;-2.606;2022-09-16T13:37:47;23.20;86.40
39951;DHT22;25629;51.444;-2.606;2022-09-16T13:40:23;22.30;87.80
39951;DHT22;25629;51.444;-2.606;2022-09-16T13:42:49;21.40;89.50
39951;DHT22;25629;51.444;-2.606;2022-09-16T13:45:37;20.60;90.60
39951;DHT22;25629;51.444;-2.606;2022-09-16T13:48:16;20.00;91.40
39951;DHT22;25629;51.444;-2.606;2022-09-16T13:50:46;19.30;92.20
39951;DHT22;25629;51.444;-2.606;2022-09-16T13:53:32;18.80;92.90
39951;DHT22;25629;51.444;-2.606;2022-09-16T14:01:52;18.40;94.00
39951;DHT22;25629;51.444;-2.606;2022-09-16T14:04:40;19.70;92.10
39951;DHT22;25629;51.444;-2.606;2022-09-16T14:10:09;22.00;89.40
39951;DHT22;25629;51.444;-2.606;2022-09-16T14:15:26;23.20;86.10
39951;DHT22;25629;51.444;-2.606;2022-09-16T14:17:58;23.00;85.80
39951;DHT22;25629;51.444;-2.606;2022-09-16T14:20:26;23.50;85.70
39951;DHT22;25629;51.444;-2.606;2022-09-16T14:23:04;23.90;85.00
39951;DHT22;25629;51.444;-2.606;2022-09-16T14:25:35;23.80;84.30
39951;DHT22;25629;51.444;-2.606;2022-09-16T14:28:16;24.40;85.40
39951;DHT22;25629;51.444;-2.606;2022-09-16T14:31:05;24.20;82.80
39951;DHT22;25629;51.444;-2.606;2022-09-16T14:36:24;24.40;84.50
39951;DHT22;25629;51.444;-2.606;2022-09-16T14:38:59;24.40;83.20
39951;DHT22;25629;51.444;-2.606;2022-09-16T14:46:57;24.30;79.90
39951;DHT22;25629;51.444;-2.606;2022-09-16T14:49:24;24.70;79.00
39951;DHT22;25629;51.444;-2.606;2022-09-16T14:52:00;25.50;79.20
39951;DHT22;25629;51.444;-2.606;2022-09-16T14:54:27;25.80;77.60
39951;DHT22;25629;51.444;-2.606;2022-09-16T14:57:02;25.10;77.30
39951;DHT22;25629;51.444;-2.606;2022-09-16T14:59:37;25.20;78.40
39951;DHT22;25629;51.444;-2.606;2022-09-16T15:02:20;25.80;78.60
39951;DHT22;25629;51.444;-2.606;2022-09-16T15:04:54;25.40;76.70
39951;DHT22;25629;51.444;-2.606;2022-09-16T15:07:28;25.80;77.60
39951;DHT22;25629;51.444;-2.606;2022-09-16T15:10:05;26.40;76.80
39951;DHT22;25629;51.444;-2.606;2022-09-16T15:12:39;26.10;77.00
39951;DHT22;25629;51.444;-2.606;2022-09-16T15:15:19;26.30;75.60
39951;DHT22;25629;51.444;-2.606;2022-09-16T15:17:56;26.20;74.50
39951;DHT22;25629;51.444;-2.606;2022-09-16T15:20:25;26.30;74.40
39951;DHT22;25629;51.444;-2.606;2022-09-16T15:22:52;26.60;73.70
39951;DHT22;25629;51.444;-2.606;2022-09-16T15:25:26;27.10;74.20
39951;DHT22;25629;51.444;-2.606;2022-09-16T15:28:16;27.70;74.00
39951;DHT22;25629;51.444;-2.606;2022-09-16T15:30:50;28.50;72.40
39951;DHT22;25629;51.444;-2.606;2022-09-16T15:33:35;27.20;72.60
39951;DHT22;25629;51.444;-2.606;2022-09-16T15:36:02;26.60;72.50
39951;DHT22;25629;51.444;-2.606;2022-09-16T15:38:29;26.40;73.20
39951;DHT22;25629;51.444;-2.606;2022-09-16T15:41:05;25.20;74.90
39951;DHT22;25629;51.444;-2.606;2022-09-16T15:43:37;23.90;76.70
39951;DHT22;25629;51.444;-2.606;2022-09-16T15:46:13;24.20;76.90
39951;DHT22;25629;51.444;-2.606;2022-09-16T15:48:45;25.00;75.70
39951;DHT22;25629;51.444;-2.606;2022-09-16T15:51:38;25.30;75.40
39951;DHT22;25629;51.444;-2.606;2022-09-16T15:59:53;25.50;74.30
39951;DHT22;25629;51.444;-2.606;2022-09-16T16:02:32;25.40;74.00
39951;DHT22;25629;51.444;-2.606;2022-09-16T16:05:17;25.70;73.60
39951;DHT22;25629;51.444;-2.606;2022-09-16T16:07:56;26.30;72.60
39951;DHT22;25629;51.444;-2.606;2022-09-16T16:10:24;25.90;72.50
39951;DHT22;25629;51.444;-2.606;2022-09-16T16:12:52;25.50;72.80
39951;DHT22;25629;51.444;-2.606;2022-09-16T16:15:27;25.20;72.60
39951;DHT22;25629;51.444;-2.606;2022-09-16T16:17:57;25.30;73.90
39951;DHT22;25629;51.444;-2.606;2022-09-16T16:20:23;25.40;72.60
39951;DHT22;25629;51.444;-2.606;2022-09-16T16:22:49;25.60;72.10
39951;DHT22;25629;51.444;-2.606;2022-09-16T16:25:15;25.60;72.30
39951;DHT22;25629;51.444;-2.606;2022-09-16T16:27:41;26.20;71.50
39951;DHT22;25629;51.444;-2.606;2022-09-16T16:30:07;26.60;71.50
39951;DHT22;25629;51.444;-2.606;2022-09-16T16:32:34;26.20;71.40
39951;DHT22;25629;51.444;-2.606;2022-09-16T16:35:00;26.60;71.50
39951;DHT22;25629;51.444;-2.606;2022-09-16T16:37:26;26.50;70.40
39951;DHT22;25629;51.444;-2.606;2022-09-16T16:39:52;26.00;70.70
39951;DHT22;25629;51.444;-2.606;2022-09-16T16:42:19;26.40;70.40
39951;DHT22;25629;51.444;-2.606;2022-09-16T16:44:45;26.90;70.70
39951;DHT22;25629;51.444;-2.606;2022-09-16T16:47:11;27.60;70.30
39951;DHT22;25629;51.444;-2.606;2022-09-16T16:49:37;27.20;69.40
39951;DHT22;25629;51.444;-2.606;2022-09-16T16:52:04;26.40;69.80
39951;DHT22;25629;51.444;-2.606;2022-09-16T16:54:31;26.10;70.80
39951;DHT22;25629;51.444;-2.606;2022-09-16T16:56:57;26.20;70.80
39951;DHT22;25629;51.444;-2.606;2022-09-16T16:59:24;25.60;70.20
39951;DHT22;25629;51.444;-2.606;2022-09-16T17:01:53;24.30;72.50
39951;DHT22;25629;51.444;-2.606;2022-09-16T17:04:19;23.30;72.20
39951;DHT22;25629;51.444;-2.606;2022-09-16T17:06:45;22.10;74.40
39951;DHT22;25629;51.444;-2.606;2022-09-16T17:09:12;21.20;75.80
39951;DHT22;25629;51.444;-2.606;2022-09-16T17:11:52;20.60;76.70
39951;DHT22;25629;51.444;-2.606;2022-09-16T17:14:18;20.40;77.20
39951;DHT22;25629;51.444;-2.606;2022-09-16T17:16:44;20.00;77.80
39951;DHT22;25629;51.444;-2.606;2022-09-16T17:19:11;19.70;78.90
39951;DHT22;25629;51.444;-2.606;2022-09-16T17:21:37;19.30;80.00
39951;DHT22;25629;51.444;-2.606;2022-09-16T17:24:04;19.10;80.40
39951;DHT22;25629;51.444;-2.606;2022-09-16T17:26:30;18.80;80.20
39951;DHT22;25629;51.444;-2.606;2022-09-16T17:28:56;18.60;80.30
39951;DHT22;25629;51.444;-2.606;2022-09-16T17:31:23;18.50;81.20
39951;DHT22;25629;51.444;-2.606;2022-09-16T17:33:55;18.40;80.70
39951;DHT22;25629;51.444;-2.606;2022-09-16T17:36:22;18.20;81.10
39951;DHT22;25629;51.444;-2.606;2022-09-16T17:38:56;18.00;80.90
39951;DHT22;25629;51.444;-2.606;2022-09-16T17:41:22;18.00;81.40
39951;DHT22;25629;51.444;-2.606;2022-09-16T17:43:49;17.80;82.20
39951;DHT22;25629;51.444;-2.606;2022-09-16T17:46:15;17.70;82.80
39951;DHT22;25629;51.444;-2.606;2022-09-16T17:48:43;17.60;83.20
39951;DHT22;25629;51.444;-2.606;2022-09-16T17:51:09;17.50;84.40
39951;DHT22;25629;51.444;-2.606;2022-09-16T17:53:36;17.40;84.70
39951;DHT22;25629;51.444;-2.606;2022-09-16T17:56:04;17.40;85.00
39951;DHT22;25629;51.444;-2.606;2022-09-16T17:58:31;17.30;85.10
39951;DHT22;25629;51.444;-2.606;2022-09-16T18:01:09;17.20;85.50
39951;DHT22;25629;51.444;-2.606;2022-09-16T18:03:35;17.20;85.70
39951;DHT22;25629;51.444;-2.606;2022-09-16T18:06:07;17.10;85.70
39951;DHT22;25629;51.444;-2.606;2022-09-16T18:08:33;17.10;85.80
39951;DHT22;25629;51.444;-2.606;2022-09-16T18:10:59;17.00;86.00
39951;DHT22;25629;51.444;-2.606;2022-09-16T18:13:25;16.90;86.30
39951;DHT22;25629;51.444;-2.606;2022-09-16T18:15:50;16.80;87.10
39951;DHT22;25629;51.444;-2.606;2022-09-16T18:18:16;16.70;87.00
39951;DHT22;25629;51.444;-2.606;2022-09-16T18:20:43;16.60;87.20
39951;DHT22;25629;51.444;-2.606;2022-09-16T18:23:08;16.50;87.50
39951;DHT22;25629;51.444;-2.606;2022-09-16T18:25:37;16.50;87.10
39951;DHT22;25629;51.444;-2.606;2022-09-16T18:28:03;16.50;87.10
39951;DHT22;25629;51.444;-2.606;2022-09-16T18:30:29;16.40;87.00